sensor_id;sensor_type;location;lat;lon;timestamp;P1;durP1;ratioP1;P2;durP2;ratioP2
7587;SDS011;3835;48.850;8.938;2023-12-29T00:00:13;14.13;;;13.33;;
7587;SDS011;3835;48.850;8.938;2023-12-29T00:02:40;13.93;;;12.93;;
7587;SDS011;3835;48.850;8.938;2023-12-29T00:05:09;13.43;;;12.63;;
7587;SDS011;3835;48.850;8.938;2023-12-29T00:07:35;13.47;;;12.77;;
7587;SDS011;3835;48.850;8.938;2023-12-29T00:10:03;13.63;;;12.83;;
7587;SDS011;3835;48.850;8.938;2023-12-29T00:12:30;13.00;;;12.27;;
7587;SDS011;3835;48.850;8.938;2023-12-29T00:14:57;13.63;;;12.83;;
7587;SDS011;3835;48.850;8.938;2023-12-29T00:17:24;14.00;;;13.10;;
7587;SDS011;3835;48.850;8.938;2023-12-29T00:19:51;13.90;;;13.10;;
7587;SDS011;3835;48.850;8.938;2023-12-29T00:22:20;14.50;;;13.57;;
7587;SDS011;3835;48.850;8.938;2023-12-29T00:24:46;13.93;;;13.03;;
7587;SDS011;3835;48.850;8.938;2023-12-29T00:27:13;14.80;;;13.80;;
7587;SDS011;3835;48.850;8.938;2023-12-29T00:29:40;13.17;;;12.37;;
7587;SDS011;3835;48.850;8.938;2023-12-29T00:32:07;14.30;;;13.30;;
7587;SDS011;3835;48.850;8.938;2023-12-29T00:34:34;13.37;;;12.67;;
7587;SDS011;3835;48.850;8.938;2023-12-29T00:37:02;12.77;;;11.97;;
7587;SDS011;3835;48.850;8.938;2023-12-29T00:39:31;13.90;;;13.10;;
7587;SDS011;3835;48.850;8.938;2023-12-29T00:42:03;14.40;;;13.53;;
7587;SDS011;3835;48.850;8.938;2023-12-29T00:44:31;14.17;;;13.33;;
7587;SDS011;3835;48.850;8.938;2023-12-29T00:46:58;14.47;;;13.57;;
7587;SDS011;3835;48.850;8.938;2023-12-29T00:49:26;13.70;;;12.80;;
7587;SDS011;3835;48.850;8.938;2023-12-29T00:51:52;13.67;;;12.77;;
7587;SDS011;3835;48.850;8.938;2023-12-29T00:54:19;13.63;;;12.93;;
7587;SDS011;3835;48.850;8.938;2023-12-29T00:56:51;12.03;;;11.30;;
7587;SDS011;3835;48.850;8.938;2023-12-29T00:59:18;14.53;;;13.47;;
7587;SDS011;3835;48.850;8.938;2023-12-29T01:01:46;14.60;;;13.70;;
7587;SDS011;3835;48.850;8.938;2023-12-29T01:04:13;13.73;;;12.77;;
7587;SDS011;3835;48.850;8.938;2023-12-29T01:06:39;14.87;;;13.97;;
7587;SDS011;3835;48.850;8.938;2023-12-29T01:09:06;15.27;;;14.37;;
7587;SDS011;3835;48.850;8.938;2023-12-29T01:11:35;13.50;;;12.70;;
7587;SDS011;3835;48.850;8.938;2023-12-29T01:14:03;15.10;;;14.23;;
7587;SDS011;3835;48.850;8.938;2023-12-29T01:16:30;14.73;;;13.83;;
7587;SDS011;3835;48.850;8.938;2023-12-29T01:18:57;15.37;;;14.27;;
7587;SDS011;3835;48.850;8.938;2023-12-29T01:21:24;14.70;;;13.73;;
7587;SDS011;3835;48.850;8.938;2023-12-29T01:23:51;14.53;;;13.53;;
7587;SDS011;3835;48.850;8.938;2023-12-29T01:26:18;15.83;;;14.67;;
7587;SDS011;3835;48.850;8.938;2023-12-29T01:28:45;13.73;;;12.93;;
7587;SDS011;3835;48.850;8.938;2023-12-29T01:31:13;14.03;;;13.13;;
7587;SDS011;3835;48.850;8.938;2023-12-29T01:33:40;13.57;;;12.77;;
7587;SDS011;3835;48.850;8.938;2023-12-29T01:36:06;14.80;;;13.90;;
7587;SDS011;3835;48.850;8.938;2023-12-29T01:38:33;15.37;;;14.37;;
7587;SDS011;3835;48.850;8.938;2023-12-29T01:41:01;14.00;;;13.30;;
7587;SDS011;3835;48.850;8.938;2023-12-29T01:43:28;15.63;;;14.60;;
7587;SDS011;3835;48.850;8.938;2023-12-29T01:45:55;13.13;;;12.33;;
7587;SDS011;3835;48.850;8.938;2023-12-29T01:48:24;13.20;;;12.40;;
7587;SDS011;3835;48.850;8.938;2023-12-29T01:50:51;14.47;;;13.63;;
7587;SDS011;3835;48.850;8.938;2023-12-29T01:53:19;13.30;;;12.30;;
7587;SDS011;3835;48.850;8.938;2023-12-29T01:55:46;14.03;;;13.23;;
7587;SDS011;3835;48.850;8.938;2023-12-29T01:58:14;13.50;;;12.70;;
7587;SDS011;3835;48.850;8.938;2023-12-29T02:00:42;13.90;;;13.17;;
7587;SDS011;3835;48.850;8.938;2023-12-29T02:03:09;14.33;;;13.53;;
7587;SDS011;3835;48.850;8.938;2023-12-29T02:05:37;14.33;;;13.30;;
7587;SDS011;3835;48.850;8.938;2023-12-29T02:08:06;13.87;;;13.10;;
7587;SDS011;3835;48.850;8.938;2023-12-29T02:10:34;13.00;;;12.30;;
7587;SDS011;3835;48.850;8.938;2023-12-29T02:13:02;13.80;;;13.00;;
7587;SDS011;3835;48.850;8.938;2023-12-29T02:15:29;12.57;;;11.87;;
7587;SDS011;3835;48.850;8.938;2023-12-29T02:17:56;14.27;;;13.37;;
7587;SDS011;3835;48.850;8.938;2023-12-29T02:20:29;14.40;;;13.60;;
7587;SDS011;3835;48.850;8.938;2023-12-29T02:22:57;12.90;;;12.27;;
7587;SDS011;3835;48.850;8.938;2023-12-29T02:25:26;13.63;;;12.90;;
7587;SDS011;3835;48.850;8.938;2023-12-29T02:27:55;14.30;;;13.40;;
7587;SDS011;3835;48.850;8.938;2023-12-29T02:30:26;14.67;;;13.83;;
7587;SDS011;3835;48.850;8.938;2023-12-29T02:33:01;15.30;;;14.30;;
7587;SDS011;3835;48.850;8.938;2023-12-29T02:35:32;15.17;;;14.20;;
7587;SDS011;3835;48.850;8.938;2023-12-29T02:38:01;14.60;;;13.80;;
7587;SDS011;3835;48.850;8.938;2023-12-29T02:40:29;14.07;;;13.27;;
7587;SDS011;3835;48.850;8.938;2023-12-29T02:42:56;12.90;;;12.10;;
7587;SDS011;3835;48.850;8.938;2023-12-29T02:45:23;13.53;;;12.73;;
7587;SDS011;3835;48.850;8.938;2023-12-29T02:47:50;14.70;;;13.70;;
7587;SDS011;3835;48.850;8.938;2023-12-29T02:50:16;13.83;;;13.13;;
7587;SDS011;3835;48.850;8.938;2023-12-29T02:52:43;13.87;;;12.97;;
7587;SDS011;3835;48.850;8.938;2023-12-29T02:55:10;14.20;;;13.43;;
7587;SDS011;3835;48.850;8.938;2023-12-29T02:57:39;15.27;;;14.37;;
7587;SDS011;3835;48.850;8.938;2023-12-29T03:00:06;14.73;;;13.83;;
7587;SDS011;3835;48.850;8.938;2023-12-29T03:02:33;13.53;;;12.57;;
7587;SDS011;3835;48.850;8.938;2023-12-29T03:05:00;15.00;;;14.07;;
7587;SDS011;3835;48.850;8.938;2023-12-29T03:07:27;14.83;;;13.90;;
7587;SDS011;3835;48.850;8.938;2023-12-29T03:09:54;14.43;;;13.53;;
7587;SDS011;3835;48.850;8.938;2023-12-29T03:12:21;14.83;;;13.80;;
7587;SDS011;3835;48.850;8.938;2023-12-29T03:14:49;14.57;;;13.67;;
7587;SDS011;3835;48.850;8.938;2023-12-29T03:17:16;14.80;;;13.80;;
7587;SDS011;3835;48.850;8.938;2023-12-29T03:19:43;14.97;;;14.07;;
7587;SDS011;3835;48.850;8.938;2023-12-29T03:22:10;13.93;;;13.10;;
7587;SDS011;3835;48.850;8.938;2023-12-29T03:24:37;15.33;;;14.37;;
7587;SDS011;3835;48.850;8.938;2023-12-29T03:27:06;13.70;;;12.90;;
7587;SDS011;3835;48.850;8.938;2023-12-29T03:29:33;14.37;;;13.50;;
7587;SDS011;3835;48.850;8.938;2023-12-29T03:32:01;14.80;;;13.90;;
7587;SDS011;3835;48.850;8.938;2023-12-29T03:34:28;14.33;;;13.33;;
7587;SDS011;3835;48.850;8.938;2023-12-29T03:36:54;15.23;;;14.33;;
7587;SDS011;3835;48.850;8.938;2023-12-29T03:39:21;14.43;;;13.43;;
7587;SDS011;3835;48.850;8.938;2023-12-29T03:41:48;15.80;;;14.80;;
7587;SDS011;3835;48.850;8.938;2023-12-29T03:44:15;15.93;;;15.03;;
7587;SDS011;3835;48.850;8.938;2023-12-29T03:46:42;15.47;;;14.57;;
7587;SDS011;3835;48.850;8.938;2023-12-29T03:49:11;14.07;;;13.30;;
7587;SDS011;3835;48.850;8.938;2023-12-29T03:51:38;14.67;;;13.77;;
7587;SDS011;3835;48.850;8.938;2023-12-29T03:54:04;15.50;;;14.13;;
7587;SDS011;3835;48.850;8.938;2023-12-29T03:56:31;13.93;;;13.03;;
7587;SDS011;3835;48.850;8.938;2023-12-29T03:58:58;14.10;;;13.23;;
7587;SDS011;3835;48.850;8.938;2023-12-29T04:01:25;14.17;;;13.37;;
7587;SDS011;3835;48.850;8.938;2023-12-29T04:03:52;15.10;;;14.20;;
7587;SDS011;3835;48.850;8.938;2023-12-29T04:06:21;17.23;;;16.03;;
7587;SDS011;3835;48.850;8.938;2023-12-29T04:08:47;15.67;;;14.77;;
7587;SDS011;3835;48.850;8.938;2023-12-29T04:11:14;16.93;;;15.93;;
7587;SDS011;3835;48.850;8.938;2023-12-29T04:13:41;14.60;;;13.70;;
7587;SDS011;3835;48.850;8.938;2023-12-29T04:16:08;14.63;;;13.73;;
7587;SDS011;3835;48.850;8.938;2023-12-29T04:18:35;16.13;;;15.23;;
7587;SDS011;3835;48.850;8.938;2023-12-29T04:21:02;17.10;;;16.20;;
7587;SDS011;3835;48.850;8.938;2023-12-29T04:23:30;16.10;;;15.20;;
7587;SDS011;3835;48.850;8.938;2023-12-29T04:25:57;15.50;;;14.37;;
7587;SDS011;3835;48.850;8.938;2023-12-29T04:28:24;15.47;;;14.47;;
7587;SDS011;3835;48.850;8.938;2023-12-29T04:30:51;16.17;;;15.17;;
7587;SDS011;3835;48.850;8.938;2023-12-29T04:33:17;15.00;;;14.10;;
7587;SDS011;3835;48.850;8.938;2023-12-29T04:35:44;14.73;;;13.90;;
7587;SDS011;3835;48.850;8.938;2023-12-29T04:38:11;15.20;;;14.30;;
7587;SDS011;3835;48.850;8.938;2023-12-29T04:40:39;14.00;;;12.93;;
7587;SDS011;3835;48.850;8.938;2023-12-29T04:43:06;15.07;;;13.97;;
7587;SDS011;3835;48.850;8.938;2023-12-29T04:45:33;14.47;;;13.63;;
7587;SDS011;3835;48.850;8.938;2023-12-29T04:48:00;14.97;;;14.07;;
7587;SDS011;3835;48.850;8.938;2023-12-29T04:50:27;15.70;;;14.80;;
7587;SDS011;3835;48.850;8.938;2023-12-29T04:52:54;15.93;;;15.13;;
7587;SDS011;3835;48.850;8.938;2023-12-29T04:55:21;15.83;;;14.93;;
7587;SDS011;3835;48.850;8.938;2023-12-29T04:57:49;16.30;;;15.20;;
7587;SDS011;3835;48.850;8.938;2023-12-29T05:00:16;15.80;;;15.00;;
7587;SDS011;3835;48.850;8.938;2023-12-29T05:02:43;16.00;;;15.10;;
7587;SDS011;3835;48.850;8.938;2023-12-29T05:05:10;15.33;;;14.50;;
7587;SDS011;3835;48.850;8.938;2023-12-29T05:07:37;14.73;;;13.93;;
7587;SDS011;3835;48.850;8.938;2023-12-29T05:10:04;14.10;;;13.20;;
7587;SDS011;3835;48.850;8.938;2023-12-29T05:12:32;14.43;;;13.53;;
7587;SDS011;3835;48.850;8.938;2023-12-29T05:15:00;14.23;;;13.43;;
7587;SDS011;3835;48.850;8.938;2023-12-29T05:17:27;13.53;;;12.73;;
7587;SDS011;3835;48.850;8.938;2023-12-29T05:19:54;14.27;;;13.47;;
7587;SDS011;3835;48.850;8.938;2023-12-29T05:22:21;13.77;;;12.87;;
7587;SDS011;3835;48.850;8.938;2023-12-29T05:24:48;13.13;;;12.37;;
7587;SDS011;3835;48.850;8.938;2023-12-29T05:27:14;13.60;;;12.70;;
7587;SDS011;3835;48.850;8.938;2023-12-29T05:29:41;14.77;;;13.97;;
7587;SDS011;3835;48.850;8.938;2023-12-29T05:32:10;14.57;;;13.67;;
7587;SDS011;3835;48.850;8.938;2023-12-29T05:34:36;14.40;;;13.40;;
7587;SDS011;3835;48.850;8.938;2023-12-29T05:37:03;14.87;;;13.87;;
7587;SDS011;3835;48.850;8.938;2023-12-29T05:39:30;14.83;;;13.93;;
7587;SDS011;3835;48.850;8.938;2023-12-29T05:41:57;15.27;;;14.27;;
7587;SDS011;3835;48.850;8.938;2023-12-29T05:44:24;15.07;;;14.23;;
7587;SDS011;3835;48.850;8.938;2023-12-29T05:46:51;16.03;;;15.10;;
7587;SDS011;3835;48.850;8.938;2023-12-29T05:49:22;16.20;;;15.27;;
7587;SDS011;3835;48.850;8.938;2023-12-29T05:51:50;15.10;;;14.23;;
7587;SDS011;3835;48.850;8.938;2023-12-29T05:54:17;14.80;;;13.90;;
7587;SDS011;3835;48.850;8.938;2023-12-29T05:56:44;14.63;;;13.80;;
7587;SDS011;3835;48.850;8.938;2023-12-29T05:59:11;13.73;;;13.00;;
7587;SDS011;3835;48.850;8.938;2023-12-29T06:01:38;13.47;;;12.47;;
7587;SDS011;3835;48.850;8.938;2023-12-29T06:04:05;13.20;;;12.40;;
7587;SDS011;3835;48.850;8.938;2023-12-29T06:06:33;14.07;;;13.30;;
7587;SDS011;3835;48.850;8.938;2023-12-29T06:09:00;13.90;;;13.00;;
7587;SDS011;3835;48.850;8.938;2023-12-29T06:11:27;13.53;;;12.73;;
7587;SDS011;3835;48.850;8.938;2023-12-29T06:13:54;14.97;;;13.97;;
7587;SDS011;3835;48.850;8.938;2023-12-29T06:16:21;15.90;;;14.90;;
7587;SDS011;3835;48.850;8.938;2023-12-29T06:18:50;14.40;;;13.57;;
7587;SDS011;3835;48.850;8.938;2023-12-29T06:21:17;15.13;;;14.13;;
7587;SDS011;3835;48.850;8.938;2023-12-29T06:23:45;14.83;;;13.87;;
7587;SDS011;3835;48.850;8.938;2023-12-29T06:26:16;15.13;;;14.13;;
7587;SDS011;3835;48.850;8.938;2023-12-29T06:28:43;15.07;;;14.07;;
7587;SDS011;3835;48.850;8.938;2023-12-29T06:31:10;13.90;;;13.00;;
7587;SDS011;3835;48.850;8.938;2023-12-29T06:33:40;15.17;;;14.20;;
7587;SDS011;3835;48.850;8.938;2023-12-29T06:36:07;13.83;;;13.03;;
7587;SDS011;3835;48.850;8.938;2023-12-29T06:38:34;15.13;;;14.10;;
7587;SDS011;3835;48.850;8.938;2023-12-29T06:41:03;14.00;;;13.20;;
7587;SDS011;3835;48.850;8.938;2023-12-29T06:43:31;13.63;;;12.83;;
7587;SDS011;3835;48.850;8.938;2023-12-29T06:45:58;15.00;;;14.00;;
7587;SDS011;3835;48.850;8.938;2023-12-29T06:48:25;13.47;;;12.67;;
7587;SDS011;3835;48.850;8.938;2023-12-29T06:50:52;13.70;;;12.90;;
7587;SDS011;3835;48.850;8.938;2023-12-29T06:53:19;14.20;;;13.40;;
7587;SDS011;3835;48.850;8.938;2023-12-29T06:55:46;14.30;;;13.50;;
7587;SDS011;3835;48.850;8.938;2023-12-29T06:58:14;12.97;;;12.17;;
7587;SDS011;3835;48.850;8.938;2023-12-29T07:00:41;13.43;;;12.43;;
7587;SDS011;3835;48.850;8.938;2023-12-29T07:03:08;13.30;;;12.50;;
7587;SDS011;3835;48.850;8.938;2023-12-29T07:05:35;13.77;;;12.97;;
7587;SDS011;3835;48.850;8.938;2023-12-29T07:08:02;12.90;;;12.20;;
7587;SDS011;3835;48.850;8.938;2023-12-29T07:10:29;14.03;;;13.33;;
7587;SDS011;3835;48.850;8.938;2023-12-29T07:12:56;12.67;;;11.97;;
7587;SDS011;3835;48.850;8.938;2023-12-29T07:15:25;13.47;;;12.73;;
7587;SDS011;3835;48.850;8.938;2023-12-29T07:17:51;14.00;;;13.20;;
7587;SDS011;3835;48.850;8.938;2023-12-29T07:20:18;13.30;;;12.50;;
7587;SDS011;3835;48.850;8.938;2023-12-29T07:22:45;12.77;;;12.07;;
7587;SDS011;3835;48.850;8.938;2023-12-29T07:25:13;12.73;;;11.93;;
7587;SDS011;3835;48.850;8.938;2023-12-29T07:27:40;12.53;;;11.80;;
7587;SDS011;3835;48.850;8.938;2023-12-29T07:30:07;12.87;;;12.07;;
7587;SDS011;3835;48.850;8.938;2023-12-29T07:32:36;13.57;;;12.67;;
7587;SDS011;3835;48.850;8.938;2023-12-29T07:35:03;12.27;;;11.57;;
7587;SDS011;3835;48.850;8.938;2023-12-29T07:37:30;13.47;;;12.77;;
7587;SDS011;3835;48.850;8.938;2023-12-29T07:39:57;14.07;;;13.27;;
7587;SDS011;3835;48.850;8.938;2023-12-29T07:42:25;13.70;;;12.87;;
7587;SDS011;3835;48.850;8.938;2023-12-29T07:48:15;12.67;;;11.97;;
7587;SDS011;3835;48.850;8.938;2023-12-29T07:50:42;13.07;;;12.37;;
7587;SDS011;3835;48.850;8.938;2023-12-29T07:53:09;13.63;;;12.83;;
7587;SDS011;3835;48.850;8.938;2023-12-29T07:55:37;12.43;;;11.63;;
7587;SDS011;3835;48.850;8.938;2023-12-29T07:58:05;12.30;;;11.60;;
7587;SDS011;3835;48.850;8.938;2023-12-29T08:00:35;12.30;;;11.70;;
7587;SDS011;3835;48.850;8.938;2023-12-29T08:03:02;13.13;;;12.43;;
7587;SDS011;3835;48.850;8.938;2023-12-29T08:05:32;13.37;;;12.73;;
7587;SDS011;3835;48.850;8.938;2023-12-29T08:07:58;12.83;;;12.23;;
7587;SDS011;3835;48.850;8.938;2023-12-29T08:10:25;12.93;;;12.33;;
7587;SDS011;3835;48.850;8.938;2023-12-29T08:12:52;11.83;;;11.13;;
7587;SDS011;3835;48.850;8.938;2023-12-29T08:15:19;12.00;;;11.40;;
7587;SDS011;3835;48.850;8.938;2023-12-29T08:17:46;12.80;;;11.90;;
7587;SDS011;3835;48.850;8.938;2023-12-29T08:20:13;13.93;;;13.13;;
7587;SDS011;3835;48.850;8.938;2023-12-29T08:22:41;13.90;;;13.07;;
7587;SDS011;3835;48.850;8.938;2023-12-29T08:25:09;14.77;;;13.87;;
7587;SDS011;3835;48.850;8.938;2023-12-29T08:27:36;14.53;;;13.73;;
7587;SDS011;3835;48.850;8.938;2023-12-29T08:30:03;12.17;;;11.57;;
7587;SDS011;3835;48.850;8.938;2023-12-29T08:32:31;13.73;;;13.03;;
7587;SDS011;3835;48.850;8.938;2023-12-29T08:34:59;12.40;;;11.53;;
7587;SDS011;3835;48.850;8.938;2023-12-29T08:37:26;12.40;;;11.70;;
7587;SDS011;3835;48.850;8.938;2023-12-29T08:39:54;13.40;;;12.60;;
7587;SDS011;3835;48.850;8.938;2023-12-29T08:42:21;13.47;;;12.77;;
7587;SDS011;3835;48.850;8.938;2023-12-29T08:44:48;14.33;;;13.57;;
7587;SDS011;3835;48.850;8.938;2023-12-29T08:47:15;12.47;;;11.90;;
7587;SDS011;3835;48.850;8.938;2023-12-29T08:49:42;12.93;;;12.33;;
7587;SDS011;3835;48.850;8.938;2023-12-29T08:52:08;13.47;;;12.77;;
7587;SDS011;3835;48.850;8.938;2023-12-29T08:54:35;12.87;;;12.27;;
7587;SDS011;3835;48.850;8.938;2023-12-29T08:57:04;12.67;;;12.00;;
7587;SDS011;3835;48.850;8.938;2023-12-29T08:59:31;12.93;;;12.33;;
7587;SDS011;3835;48.850;8.938;2023-12-29T09:01:58;13.13;;;12.53;;
7587;SDS011;3835;48.850;8.938;2023-12-29T09:04:25;13.13;;;12.53;;
7587;SDS011;3835;48.850;8.938;2023-12-29T09:06:53;12.33;;;11.63;;
7587;SDS011;3835;48.850;8.938;2023-12-29T09:09:20;12.73;;;12.13;;
7587;SDS011;3835;48.850;8.938;2023-12-29T09:11:48;15.83;;;14.77;;
7587;SDS011;3835;48.850;8.938;2023-12-29T09:14:16;13.47;;;12.67;;
7587;SDS011;3835;48.850;8.938;2023-12-29T09:16:44;14.17;;;13.37;;
7587;SDS011;3835;48.850;8.938;2023-12-29T09:19:11;15.97;;;14.90;;
7587;SDS011;3835;48.850;8.938;2023-12-29T09:21:38;17.43;;;16.23;;
7587;SDS011;3835;48.850;8.938;2023-12-29T09:24:05;15.33;;;14.27;;
7587;SDS011;3835;48.850;8.938;2023-12-29T09:26:32;13.60;;;12.80;;
7587;SDS011;3835;48.850;8.938;2023-12-29T09:28:59;15.20;;;14.37;;
7587;SDS011;3835;48.850;8.938;2023-12-29T09:31:37;17.03;;;15.90;;
7587;SDS011;3835;48.850;8.938;2023-12-29T09:34:04;14.10;;;13.33;;
7587;SDS011;3835;48.850;8.938;2023-12-29T09:36:31;13.63;;;12.93;;
7587;SDS011;3835;48.850;8.938;2023-12-29T09:38:57;15.10;;;14.23;;
7587;SDS011;3835;48.850;8.938;2023-12-29T09:41:24;14.47;;;13.67;;
7587;SDS011;3835;48.850;8.938;2023-12-29T09:43:54;14.90;;;14.07;;
7587;SDS011;3835;48.850;8.938;2023-12-29T09:46:21;16.23;;;15.33;;
7587;SDS011;3835;48.850;8.938;2023-12-29T09:48:50;16.00;;;15.20;;
7587;SDS011;3835;48.850;8.938;2023-12-29T09:51:20;15.97;;;15.07;;
7587;SDS011;3835;48.850;8.938;2023-12-29T09:53:49;17.50;;;16.50;;
7587;SDS011;3835;48.850;8.938;2023-12-29T09:56:17;15.10;;;14.30;;
7587;SDS011;3835;48.850;8.938;2023-12-29T09:58:46;15.63;;;14.83;;
7587;SDS011;3835;48.850;8.938;2023-12-29T10:01:13;16.90;;;16.07;;
7587;SDS011;3835;48.850;8.938;2023-12-29T10:03:43;16.57;;;15.67;;
7587;SDS011;3835;48.850;8.938;2023-12-29T10:06:11;15.30;;;14.47;;
7587;SDS011;3835;48.850;8.938;2023-12-29T10:08:41;13.53;;;12.83;;
7587;SDS011;3835;48.850;8.938;2023-12-29T10:11:11;14.07;;;13.37;;
7587;SDS011;3835;48.850;8.938;2023-12-29T10:13:39;14.97;;;14.17;;
7587;SDS011;3835;48.850;8.938;2023-12-29T10:16:13;13.60;;;13.00;;
7587;SDS011;3835;48.850;8.938;2023-12-29T10:18:47;14.10;;;13.27;;
7587;SDS011;3835;48.850;8.938;2023-12-29T10:21:25;13.30;;;12.70;;
7587;SDS011;3835;48.850;8.938;2023-12-29T10:23:56;13.13;;;12.40;;
7587;SDS011;3835;48.850;8.938;2023-12-29T10:26:29;14.07;;;13.27;;
7587;SDS011;3835;48.850;8.938;2023-12-29T10:28:56;13.13;;;12.53;;
7587;SDS011;3835;48.850;8.938;2023-12-29T10:31:25;11.80;;;11.20;;
7587;SDS011;3835;48.850;8.938;2023-12-29T10:33:51;12.07;;;11.57;;
7587;SDS011;3835;48.850;8.938;2023-12-29T10:36:18;12.30;;;11.70;;
7587;SDS011;3835;48.850;8.938;2023-12-29T10:38:46;12.23;;;11.67;;
7587;SDS011;3835;48.850;8.938;2023-12-29T10:41:15;10.87;;;10.37;;
7587;SDS011;3835;48.850;8.938;2023-12-29T10:43:43;11.60;;;11.10;;
7587;SDS011;3835;48.850;8.938;2023-12-29T10:46:12;12.40;;;11.90;;
7587;SDS011;3835;48.850;8.938;2023-12-29T10:48:40;12.47;;;11.90;;
7587;SDS011;3835;48.850;8.938;2023-12-29T10:51:06;12.40;;;11.90;;
7587;SDS011;3835;48.850;8.938;2023-12-29T10:53:35;13.37;;;12.47;;
7587;SDS011;3835;48.850;8.938;2023-12-29T10:56:04;12.43;;;11.73;;
7587;SDS011;3835;48.850;8.938;2023-12-29T10:58:37;14.20;;;13.50;;
7587;SDS011;3835;48.850;8.938;2023-12-29T11:01:05;10.97;;;10.50;;
7587;SDS011;3835;48.850;8.938;2023-12-29T11:03:44;11.67;;;11.17;;
7587;SDS011;3835;48.850;8.938;2023-12-29T11:06:25;12.17;;;11.67;;
7587;SDS011;3835;48.850;8.938;2023-12-29T11:08:54;11.07;;;10.57;;
7587;SDS011;3835;48.850;8.938;2023-12-29T11:11:24;12.17;;;11.57;;
7587;SDS011;3835;48.850;8.938;2023-12-29T11:13:52;13.67;;;13.07;;
7587;SDS011;3835;48.850;8.938;2023-12-29T11:16:21;13.40;;;12.80;;
7587;SDS011;3835;48.850;8.938;2023-12-29T11:18:55;12.57;;;12.07;;
7587;SDS011;3835;48.850;8.938;2023-12-29T11:21:30;12.53;;;12.03;;
7587;SDS011;3835;48.850;8.938;2023-12-29T11:23:59;12.10;;;11.50;;
7587;SDS011;3835;48.850;8.938;2023-12-29T11:26:32;13.20;;;12.70;;
7587;SDS011;3835;48.850;8.938;2023-12-29T11:29:00;12.47;;;11.97;;
7587;SDS011;3835;48.850;8.938;2023-12-29T11:31:29;12.47;;;11.97;;
7587;SDS011;3835;48.850;8.938;2023-12-29T11:33:59;11.03;;;10.60;;
7587;SDS011;3835;48.850;8.938;2023-12-29T11:36:38;11.70;;;11.20;;
7587;SDS011;3835;48.850;8.938;2023-12-29T11:39:14;11.20;;;10.70;;
7587;SDS011;3835;48.850;8.938;2023-12-29T11:41:54;11.73;;;11.13;;
7587;SDS011;3835;48.850;8.938;2023-12-29T11:44:29;12.30;;;11.80;;
7587;SDS011;3835;48.850;8.938;2023-12-29T11:46:58;11.70;;;11.20;;
7587;SDS011;3835;48.850;8.938;2023-12-29T11:49:26;11.93;;;11.43;;
7587;SDS011;3835;48.850;8.938;2023-12-29T11:52:06;12.57;;;11.97;;
7587;SDS011;3835;48.850;8.938;2023-12-29T11:54:35;12.73;;;12.23;;
7587;SDS011;3835;48.850;8.938;2023-12-29T11:57:08;12.83;;;12.27;;
7587;SDS011;3835;48.850;8.938;2023-12-29T11:59:46;14.93;;;14.23;;
7587;SDS011;3835;48.850;8.938;2023-12-29T12:02:25;13.23;;;12.63;;
7587;SDS011;3835;48.850;8.938;2023-12-29T12:04:54;12.97;;;12.47;;
7587;SDS011;3835;48.850;8.938;2023-12-29T12:10:30;14.23;;;13.63;;
7587;SDS011;3835;48.850;8.938;2023-12-29T12:13:01;12.33;;;11.83;;
7587;SDS011;3835;48.850;8.938;2023-12-29T12:15:32;13.00;;;12.50;;
7587;SDS011;3835;48.850;8.938;2023-12-29T12:18:00;13.00;;;12.40;;
7587;SDS011;3835;48.850;8.938;2023-12-29T12:20:31;13.13;;;12.57;;
7587;SDS011;3835;48.850;8.938;2023-12-29T12:23:00;12.47;;;11.97;;
7587;SDS011;3835;48.850;8.938;2023-12-29T12:25:31;11.53;;;11.03;;
7587;SDS011;3835;48.850;8.938;2023-12-29T12:30:35;13.63;;;13.13;;
7587;SDS011;3835;48.850;8.938;2023-12-29T12:33:06;12.53;;;11.93;;
7587;SDS011;3835;48.850;8.938;2023-12-29T12:35:37;13.23;;;12.73;;
7587;SDS011;3835;48.850;8.938;2023-12-29T12:38:13;12.53;;;12.03;;
7587;SDS011;3835;48.850;8.938;2023-12-29T12:40:45;14.00;;;13.30;;
7587;SDS011;3835;48.850;8.938;2023-12-29T12:43:13;13.03;;;12.43;;
7587;SDS011;3835;48.850;8.938;2023-12-29T12:45:47;12.43;;;11.80;;
7587;SDS011;3835;48.850;8.938;2023-12-29T12:48:20;12.20;;;11.70;;
7587;SDS011;3835;48.850;8.938;2023-12-29T12:50:50;13.63;;;12.93;;
7587;SDS011;3835;48.850;8.938;2023-12-29T12:53:19;14.30;;;13.63;;
7587;SDS011;3835;48.850;8.938;2023-12-29T12:55:47;15.10;;;14.50;;
7587;SDS011;3835;48.850;8.938;2023-12-29T12:58:16;12.83;;;12.23;;
7587;SDS011;3835;48.850;8.938;2023-12-29T13:00:46;12.83;;;12.30;;
7587;SDS011;3835;48.850;8.938;2023-12-29T13:03:15;13.57;;;12.87;;
7587;SDS011;3835;48.850;8.938;2023-12-29T13:05:43;14.10;;;13.50;;
7587;SDS011;3835;48.850;8.938;2023-12-29T13:08:12;11.30;;;10.80;;
7587;SDS011;3835;48.850;8.938;2023-12-29T13:10:40;13.50;;;12.90;;
7587;SDS011;3835;48.850;8.938;2023-12-29T13:13:07;11.10;;;10.60;;
7587;SDS011;3835;48.850;8.938;2023-12-29T13:15:34;12.57;;;11.90;;
7587;SDS011;3835;48.850;8.938;2023-12-29T13:18:03;12.90;;;12.30;;
7587;SDS011;3835;48.850;8.938;2023-12-29T13:20:30;12.83;;;12.30;;
7587;SDS011;3835;48.850;8.938;2023-12-29T13:23:10;12.77;;;12.17;;
7587;SDS011;3835;48.850;8.938;2023-12-29T13:25:36;12.47;;;11.97;;
7587;SDS011;3835;48.850;8.938;2023-12-29T13:28:06;12.43;;;11.87;;
7587;SDS011;3835;48.850;8.938;2023-12-29T13:30:33;11.50;;;11.00;;
7587;SDS011;3835;48.850;8.938;2023-12-29T13:33:07;11.63;;;11.13;;
7587;SDS011;3835;48.850;8.938;2023-12-29T13:35:37;12.17;;;11.63;;
7587;SDS011;3835;48.850;8.938;2023-12-29T13:38:10;12.23;;;11.73;;
7587;SDS011;3835;48.850;8.938;2023-12-29T13:40:44;12.53;;;12.03;;
7587;SDS011;3835;48.850;8.938;2023-12-29T13:43:20;13.17;;;12.63;;
7587;SDS011;3835;48.850;8.938;2023-12-29T13:45:48;12.77;;;12.17;;
7587;SDS011;3835;48.850;8.938;2023-12-29T13:48:17;12.17;;;11.67;;
7587;SDS011;3835;48.850;8.938;2023-12-29T13:50:44;14.13;;;13.53;;
7587;SDS011;3835;48.850;8.938;2023-12-29T13:53:15;14.10;;;13.50;;
7587;SDS011;3835;48.850;8.938;2023-12-29T13:55:43;13.53;;;12.93;;
7587;SDS011;3835;48.850;8.938;2023-12-29T13:58:10;13.47;;;12.97;;
7587;SDS011;3835;48.850;8.938;2023-12-29T14:00:39;13.83;;;13.23;;
7587;SDS011;3835;48.850;8.938;2023-12-29T14:03:10;14.47;;;13.87;;
7587;SDS011;3835;48.850;8.938;2023-12-29T14:05:47;15.37;;;14.67;;
7587;SDS011;3835;48.850;8.938;2023-12-29T14:08:17;13.97;;;13.37;;
7587;SDS011;3835;48.850;8.938;2023-12-29T14:10:49;12.20;;;11.57;;
7587;SDS011;3835;48.850;8.938;2023-12-29T14:13:16;13.93;;;13.33;;
7587;SDS011;3835;48.850;8.938;2023-12-29T14:15:44;12.37;;;11.87;;
7587;SDS011;3835;48.850;8.938;2023-12-29T14:18:22;12.53;;;12.03;;
7587;SDS011;3835;48.850;8.938;2023-12-29T14:21:02;12.83;;;12.13;;
7587;SDS011;3835;48.850;8.938;2023-12-29T14:23:55;12.77;;;12.07;;
7587;SDS011;3835;48.850;8.938;2023-12-29T14:26:32;12.37;;;11.77;;
7587;SDS011;3835;48.850;8.938;2023-12-29T14:29:00;13.70;;;13.00;;
7587;SDS011;3835;48.850;8.938;2023-12-29T14:31:27;11.90;;;11.40;;
7587;SDS011;3835;48.850;8.938;2023-12-29T14:33:55;12.87;;;12.33;;
7587;SDS011;3835;48.850;8.938;2023-12-29T14:36:23;14.03;;;13.43;;
7587;SDS011;3835;48.850;8.938;2023-12-29T14:38:51;12.17;;;11.47;;
7587;SDS011;3835;48.850;8.938;2023-12-29T14:41:18;13.77;;;13.17;;
7587;SDS011;3835;48.850;8.938;2023-12-29T14:43:45;12.17;;;11.57;;
7587;SDS011;3835;48.850;8.938;2023-12-29T14:46:11;12.30;;;11.70;;
7587;SDS011;3835;48.850;8.938;2023-12-29T14:48:38;11.90;;;11.30;;
7587;SDS011;3835;48.850;8.938;2023-12-29T14:51:05;11.67;;;11.17;;
7587;SDS011;3835;48.850;8.938;2023-12-29T14:53:33;11.60;;;11.03;;
7587;SDS011;3835;48.850;8.938;2023-12-29T14:56:00;12.03;;;11.50;;
7587;SDS011;3835;48.850;8.938;2023-12-29T14:58:27;13.07;;;12.43;;
7587;SDS011;3835;48.850;8.938;2023-12-29T15:00:54;11.87;;;11.37;;
7587;SDS011;3835;48.850;8.938;2023-12-29T15:03:21;11.03;;;10.53;;